Terminal Aerodrome Forecast
Issued by NWS

Home | Current Version | Previous Version | Text Only | Print | Product List | Glossary On
Versions: 1 2 3 4 5 6 7 8 9 10 11 12 13 14 15 16 17 18 19 20 21 22 23 24 25 26 27 28 29
000
FTUS42 KRAH 242335
TAFRWI
TAF
KRWI 242335Z 2500/2524 26004KT P6SM BKN250
     FM251300 10005KT P6SM OVC060
     FM251800 03006KT 4SM -RA BR OVC015
     FM252100 02006KT 4SM -RA BR OVC007=

USA.gov is the U.S. government's official web portal to all federal, state and local government web resources and services.